sensor_id;sensor_type;location;lat;lon;timestamp;P1;durP1;ratioP1;P2;durP2;ratioP2
77136;SDS011;66102;48.542;-2.970;2023-04-24T00:00:30;7.78;;;1.98;;
77136;SDS011;66102;48.542;-2.970;2023-04-24T00:02:57;6.20;;;1.92;;
77136;SDS011;66102;48.542;-2.970;2023-04-24T00:05:23;9.90;;;2.75;;
77136;SDS011;66102;48.542;-2.970;2023-04-24T00:07:49;9.38;;;2.33;;
77136;SDS011;66102;48.542;-2.970;2023-04-24T00:10:19;6.38;;;2.10;;
77136;SDS011;66102;48.542;-2.970;2023-04-24T00:12:45;6.90;;;2.20;;
77136;SDS011;66102;48.542;-2.970;2023-04-24T00:15:11;5.97;;;1.77;;
77136;SDS011;66102;48.542;-2.970;2023-04-24T00:17:37;5.93;;;1.90;;
77136;SDS011;66102;48.542;-2.970;2023-04-24T00:20:03;5.93;;;1.85;;
77136;SDS011;66102;48.542;-2.970;2023-04-24T00:22:31;7.03;;;2.08;;
77136;SDS011;66102;48.542;-2.970;2023-04-24T00:24:58;6.00;;;2.08;;
77136;SDS011;66102;48.542;-2.970;2023-04-24T00:27:24;7.80;;;2.00;;
77136;SDS011;66102;48.542;-2.970;2023-04-24T00:29:50;7.32;;;2.25;;
77136;SDS011;66102;48.542;-2.970;2023-04-24T00:32:16;4.72;;;2.00;;
77136;SDS011;66102;48.542;-2.970;2023-04-24T00:34:42;6.38;;;2.17;;
77136;SDS011;66102;48.542;-2.970;2023-04-24T00:37:08;7.32;;;1.73;;
77136;SDS011;66102;48.542;-2.970;2023-04-24T00:39:34;7.18;;;2.15;;
77136;SDS011;66102;48.542;-2.970;2023-04-24T00:42:00;6.85;;;2.47;;
77136;SDS011;66102;48.542;-2.970;2023-04-24T00:44:26;6.80;;;2.50;;
77136;SDS011;66102;48.542;-2.970;2023-04-24T00:46:53;5.43;;;1.52;;
77136;SDS011;66102;48.542;-2.970;2023-04-24T00:49:21;6.80;;;1.90;;
77136;SDS011;66102;48.542;-2.970;2023-04-24T00:51:47;4.95;;;1.90;;
77136;SDS011;66102;48.542;-2.970;2023-04-24T00:54:14;4.68;;;1.90;;
77136;SDS011;66102;48.542;-2.970;2023-04-24T00:56:41;4.75;;;1.80;;
77136;SDS011;66102;48.542;-2.970;2023-04-24T00:59:07;7.40;;;1.88;;
77136;SDS011;66102;48.542;-2.970;2023-04-24T01:01:34;7.38;;;2.42;;
77136;SDS011;66102;48.542;-2.970;2023-04-24T01:04:00;4.85;;;2.20;;
77136;SDS011;66102;48.542;-2.970;2023-04-24T01:06:27;7.35;;;1.98;;
77136;SDS011;66102;48.542;-2.970;2023-04-24T01:08:53;5.97;;;2.13;;
77136;SDS011;66102;48.542;-2.970;2023-04-24T01:11:20;6.00;;;1.70;;
77136;SDS011;66102;48.542;-2.970;2023-04-24T01:13:47;10.18;;;2.30;;
77136;SDS011;66102;48.542;-2.970;2023-04-24T01:16:13;9.73;;;2.55;;
77136;SDS011;66102;48.542;-2.970;2023-04-24T01:18:40;8.45;;;1.98;;
77136;SDS011;66102;48.542;-2.970;2023-04-24T01:21:06;6.88;;;1.75;;
77136;SDS011;66102;48.542;-2.970;2023-04-24T01:23:34;6.68;;;2.65;;
77136;SDS011;66102;48.542;-2.970;2023-04-24T01:26:00;5.20;;;1.77;;
77136;SDS011;66102;48.542;-2.970;2023-04-24T01:28:26;7.47;;;2.00;;
77136;SDS011;66102;48.542;-2.970;2023-04-24T01:30:52;7.43;;;1.92;;
77136;SDS011;66102;48.542;-2.970;2023-04-24T01:33:18;8.23;;;1.73;;
77136;SDS011;66102;48.542;-2.970;2023-04-24T01:35:46;5.38;;;2.00;;
77136;SDS011;66102;48.542;-2.970;2023-04-24T01:38:12;6.97;;;2.30;;
77136;SDS011;66102;48.542;-2.970;2023-04-24T01:40:38;7.22;;;2.10;;
77136;SDS011;66102;48.542;-2.970;2023-04-24T01:43:05;5.32;;;1.80;;
77136;SDS011;66102;48.542;-2.970;2023-04-24T01:45:31;5.13;;;2.30;;
77136;SDS011;66102;48.542;-2.970;2023-04-24T01:47:57;5.40;;;1.80;;
77136;SDS011;66102;48.542;-2.970;2023-04-24T01:50:23;9.00;;;2.25;;
77136;SDS011;66102;48.542;-2.970;2023-04-24T01:52:49;7.25;;;2.00;;
77136;SDS011;66102;48.542;-2.970;2023-04-24T01:55:15;8.30;;;2.20;;
77136;SDS011;66102;48.542;-2.970;2023-04-24T01:57:41;5.70;;;2.10;;
77136;SDS011;66102;48.542;-2.970;2023-04-24T02:00:07;7.50;;;2.67;;
77136;SDS011;66102;48.542;-2.970;2023-04-24T02:02:33;4.60;;;1.80;;
77136;SDS011;66102;48.542;-2.970;2023-04-24T02:04:59;6.20;;;2.10;;
77136;SDS011;66102;48.542;-2.970;2023-04-24T02:07:25;6.22;;;1.98;;
77136;SDS011;66102;48.542;-2.970;2023-04-24T02:09:51;6.78;;;1.80;;
77136;SDS011;66102;48.542;-2.970;2023-04-24T02:12:17;5.03;;;1.90;;
77136;SDS011;66102;48.542;-2.970;2023-04-24T02:14:43;7.60;;;1.95;;
77136;SDS011;66102;48.542;-2.970;2023-04-24T02:17:09;5.13;;;1.80;;
77136;SDS011;66102;48.542;-2.970;2023-04-24T02:19:38;6.75;;;2.47;;
77136;SDS011;66102;48.542;-2.970;2023-04-24T02:22:04;4.70;;;2.30;;
77136;SDS011;66102;48.542;-2.970;2023-04-24T02:24:30;7.80;;;2.50;;
77136;SDS011;66102;48.542;-2.970;2023-04-24T02:26:56;6.07;;;2.17;;
77136;SDS011;66102;48.542;-2.970;2023-04-24T02:29:23;4.28;;;1.60;;
77136;SDS011;66102;48.542;-2.970;2023-04-24T02:31:49;7.13;;;2.10;;
77136;SDS011;66102;48.542;-2.970;2023-04-24T02:34:15;5.20;;;2.03;;
77136;SDS011;66102;48.542;-2.970;2023-04-24T02:36:41;5.43;;;1.90;;
77136;SDS011;66102;48.542;-2.970;2023-04-24T02:39:07;5.47;;;2.53;;
77136;SDS011;66102;48.542;-2.970;2023-04-24T02:41:33;9.55;;;2.50;;
77136;SDS011;66102;48.542;-2.970;2023-04-24T02:43:59;7.50;;;1.90;;
77136;SDS011;66102;48.542;-2.970;2023-04-24T02:46:25;6.03;;;2.30;;
77136;SDS011;66102;48.542;-2.970;2023-04-24T02:48:51;7.72;;;2.25;;
77136;SDS011;66102;48.542;-2.970;2023-04-24T02:51:17;9.43;;;2.45;;
77136;SDS011;66102;48.542;-2.970;2023-04-24T02:53:44;4.00;;;1.90;;
77136;SDS011;66102;48.542;-2.970;2023-04-24T02:56:10;6.43;;;2.38;;
77136;SDS011;66102;48.542;-2.970;2023-04-24T02:58:38;4.30;;;1.85;;
77136;SDS011;66102;48.542;-2.970;2023-04-24T03:01:04;7.07;;;2.20;;
77136;SDS011;66102;48.542;-2.970;2023-04-24T03:03:31;13.23;;;2.53;;
77136;SDS011;66102;48.542;-2.970;2023-04-24T03:05:57;5.78;;;2.00;;
77136;SDS011;66102;48.542;-2.970;2023-04-24T03:08:23;5.32;;;2.08;;
77136;SDS011;66102;48.542;-2.970;2023-04-24T03:10:49;7.43;;;2.45;;
77136;SDS011;66102;48.542;-2.970;2023-04-24T03:13:16;6.80;;;2.17;;
77136;SDS011;66102;48.542;-2.970;2023-04-24T03:15:42;6.90;;;2.65;;
77136;SDS011;66102;48.542;-2.970;2023-04-24T03:18:08;15.30;;;2.85;;
77136;SDS011;66102;48.542;-2.970;2023-04-24T03:20:34;7.43;;;2.95;;
77136;SDS011;66102;48.542;-2.970;2023-04-24T03:23:01;8.13;;;2.55;;
77136;SDS011;66102;48.542;-2.970;2023-04-24T03:25:27;8.57;;;2.40;;
77136;SDS011;66102;48.542;-2.970;2023-04-24T03:27:54;6.00;;;2.13;;
77136;SDS011;66102;48.542;-2.970;2023-04-24T03:30:20;6.07;;;2.08;;
77136;SDS011;66102;48.542;-2.970;2023-04-24T03:32:46;6.25;;;2.58;;
77136;SDS011;66102;48.542;-2.970;2023-04-24T03:35:12;6.43;;;2.25;;
77136;SDS011;66102;48.542;-2.970;2023-04-24T03:37:38;10.35;;;3.47;;
77136;SDS011;66102;48.542;-2.970;2023-04-24T03:40:04;5.22;;;2.30;;
77136;SDS011;66102;48.542;-2.970;2023-04-24T03:42:32;5.85;;;2.60;;
77136;SDS011;66102;48.542;-2.970;2023-04-24T03:44:58;5.93;;;2.60;;
77136;SDS011;66102;48.542;-2.970;2023-04-24T03:47:24;9.43;;;2.45;;
77136;SDS011;66102;48.542;-2.970;2023-04-24T03:49:50;7.70;;;2.53;;
77136;SDS011;66102;48.542;-2.970;2023-04-24T03:52:16;5.82;;;2.15;;
77136;SDS011;66102;48.542;-2.970;2023-04-24T03:54:42;6.45;;;2.72;;
77136;SDS011;66102;48.542;-2.970;2023-04-24T03:57:08;8.48;;;2.50;;
77136;SDS011;66102;48.542;-2.970;2023-04-24T03:59:34;7.05;;;2.78;;
77136;SDS011;66102;48.542;-2.970;2023-04-24T04:02:00;9.05;;;2.30;;
77136;SDS011;66102;48.542;-2.970;2023-04-24T04:04:27;8.40;;;2.50;;
77136;SDS011;66102;48.542;-2.970;2023-04-24T04:06:53;6.05;;;2.40;;
77136;SDS011;66102;48.542;-2.970;2023-04-24T04:09:19;6.05;;;2.67;;
77136;SDS011;66102;48.542;-2.970;2023-04-24T04:11:45;6.40;;;2.35;;
77136;SDS011;66102;48.542;-2.970;2023-04-24T04:14:11;6.82;;;2.85;;
77136;SDS011;66102;48.542;-2.970;2023-04-24T04:16:37;7.88;;;3.13;;
77136;SDS011;66102;48.542;-2.970;2023-04-24T04:19:03;7.22;;;2.75;;
77136;SDS011;66102;48.542;-2.970;2023-04-24T04:21:30;5.78;;;2.30;;
77136;SDS011;66102;48.542;-2.970;2023-04-24T04:23:57;7.78;;;2.65;;
77136;SDS011;66102;48.542;-2.970;2023-04-24T04:26:23;8.02;;;3.17;;
77136;SDS011;66102;48.542;-2.970;2023-04-24T04:28:50;7.28;;;2.83;;
77136;SDS011;66102;48.542;-2.970;2023-04-24T04:31:16;6.20;;;3.17;;
77136;SDS011;66102;48.542;-2.970;2023-04-24T04:33:42;7.93;;;3.35;;
77136;SDS011;66102;48.542;-2.970;2023-04-24T04:36:09;7.82;;;2.33;;
77136;SDS011;66102;48.542;-2.970;2023-04-24T04:38:35;7.18;;;2.75;;
77136;SDS011;66102;48.542;-2.970;2023-04-24T04:41:02;6.90;;;2.78;;
77136;SDS011;66102;48.542;-2.970;2023-04-24T04:43:28;6.38;;;2.63;;
77136;SDS011;66102;48.542;-2.970;2023-04-24T04:45:55;7.25;;;2.70;;
77136;SDS011;66102;48.542;-2.970;2023-04-24T04:48:22;6.82;;;2.50;;
77136;SDS011;66102;48.542;-2.970;2023-04-24T04:50:48;8.98;;;3.35;;
77136;SDS011;66102;48.542;-2.970;2023-04-24T04:53:14;9.15;;;3.58;;
77136;SDS011;66102;48.542;-2.970;2023-04-24T04:55:40;7.60;;;3.17;;
77136;SDS011;66102;48.542;-2.970;2023-04-24T04:58:06;7.05;;;2.97;;
77136;SDS011;66102;48.542;-2.970;2023-04-24T05:00:33;10.70;;;3.50;;
77136;SDS011;66102;48.542;-2.970;2023-04-24T05:03:02;8.38;;;3.10;;
77136;SDS011;66102;48.542;-2.970;2023-04-24T05:05:28;7.53;;;3.13;;
77136;SDS011;66102;48.542;-2.970;2023-04-24T05:07:54;7.60;;;3.72;;
77136;SDS011;66102;48.542;-2.970;2023-04-24T05:10:20;6.63;;;3.30;;
77136;SDS011;66102;48.542;-2.970;2023-04-24T05:12:46;11.73;;;6.65;;
77136;SDS011;66102;48.542;-2.970;2023-04-24T05:15:12;9.93;;;6.43;;
77136;SDS011;66102;48.542;-2.970;2023-04-24T05:17:38;7.60;;;3.85;;
77136;SDS011;66102;48.542;-2.970;2023-04-24T05:20:05;7.40;;;3.33;;
77136;SDS011;66102;48.542;-2.970;2023-04-24T05:22:32;7.82;;;3.40;;
77136;SDS011;66102;48.542;-2.970;2023-04-24T05:24:58;9.27;;;3.70;;
77136;SDS011;66102;48.542;-2.970;2023-04-24T05:27:24;8.60;;;3.47;;
77136;SDS011;66102;48.542;-2.970;2023-04-24T05:29:50;8.13;;;3.70;;
77136;SDS011;66102;48.542;-2.970;2023-04-24T05:32:16;8.30;;;3.75;;
77136;SDS011;66102;48.542;-2.970;2023-04-24T05:34:42;8.35;;;3.63;;
77136;SDS011;66102;48.542;-2.970;2023-04-24T05:37:08;8.40;;;4.00;;
77136;SDS011;66102;48.542;-2.970;2023-04-24T05:39:35;10.30;;;3.63;;
77136;SDS011;66102;48.542;-2.970;2023-04-24T05:42:01;7.03;;;3.17;;
77136;SDS011;66102;48.542;-2.970;2023-04-24T05:44:29;6.82;;;3.25;;
77136;SDS011;66102;48.542;-2.970;2023-04-24T05:46:55;8.07;;;4.00;;
77136;SDS011;66102;48.542;-2.970;2023-04-24T05:49:22;8.77;;;3.45;;
77136;SDS011;66102;48.542;-2.970;2023-04-24T05:51:48;8.85;;;3.20;;
77136;SDS011;66102;48.542;-2.970;2023-04-24T05:54:14;7.97;;;3.45;;
77136;SDS011;66102;48.542;-2.970;2023-04-24T05:56:40;8.18;;;3.30;;
77136;SDS011;66102;48.542;-2.970;2023-04-24T05:59:06;9.77;;;3.28;;
77136;SDS011;66102;48.542;-2.970;2023-04-24T06:01:33;7.43;;;3.28;;
77136;SDS011;66102;48.542;-2.970;2023-04-24T06:03:59;7.47;;;3.45;;
77136;SDS011;66102;48.542;-2.970;2023-04-24T06:06:25;10.20;;;2.78;;
77136;SDS011;66102;48.542;-2.970;2023-04-24T06:08:52;6.20;;;3.10;;
77136;SDS011;66102;48.542;-2.970;2023-04-24T06:11:18;11.20;;;3.08;;
77136;SDS011;66102;48.542;-2.970;2023-04-24T06:13:44;8.40;;;3.53;;
77136;SDS011;66102;48.542;-2.970;2023-04-24T06:16:10;7.28;;;3.20;;
77136;SDS011;66102;48.542;-2.970;2023-04-24T06:18:36;9.32;;;2.97;;
77136;SDS011;66102;48.542;-2.970;2023-04-24T06:21:03;7.03;;;2.88;;
77136;SDS011;66102;48.542;-2.970;2023-04-24T06:23:30;8.70;;;3.10;;
77136;SDS011;66102;48.542;-2.970;2023-04-24T06:25:57;9.20;;;3.38;;
77136;SDS011;66102;48.542;-2.970;2023-04-24T06:28:23;7.88;;;3.78;;
77136;SDS011;66102;48.542;-2.970;2023-04-24T06:30:50;9.68;;;3.65;;
77136;SDS011;66102;48.542;-2.970;2023-04-24T06:33:16;10.13;;;3.28;;
77136;SDS011;66102;48.542;-2.970;2023-04-24T06:35:42;7.38;;;3.17;;
77136;SDS011;66102;48.542;-2.970;2023-04-24T06:38:08;14.70;;;3.42;;
77136;SDS011;66102;48.542;-2.970;2023-04-24T06:40:34;10.95;;;3.83;;
77136;SDS011;66102;48.542;-2.970;2023-04-24T06:43:00;11.38;;;4.45;;
77136;SDS011;66102;48.542;-2.970;2023-04-24T06:45:28;7.25;;;3.53;;
77136;SDS011;66102;48.542;-2.970;2023-04-24T06:47:54;10.35;;;3.47;;
77136;SDS011;66102;48.542;-2.970;2023-04-24T06:50:21;8.52;;;3.65;;
77136;SDS011;66102;48.542;-2.970;2023-04-24T06:52:47;10.23;;;4.30;;
77136;SDS011;66102;48.542;-2.970;2023-04-24T06:55:13;10.60;;;3.80;;
77136;SDS011;66102;48.542;-2.970;2023-04-24T06:57:41;8.32;;;3.40;;
77136;SDS011;66102;48.542;-2.970;2023-04-24T07:00:07;8.85;;;3.55;;
77136;SDS011;66102;48.542;-2.970;2023-04-24T07:02:34;10.13;;;3.30;;
77136;SDS011;66102;48.542;-2.970;2023-04-24T07:05:00;9.65;;;3.25;;
77136;SDS011;66102;48.542;-2.970;2023-04-24T07:07:26;9.60;;;3.50;;
77136;SDS011;66102;48.542;-2.970;2023-04-24T07:09:53;10.52;;;2.80;;
77136;SDS011;66102;48.542;-2.970;2023-04-24T07:12:19;9.50;;;3.17;;
77136;SDS011;66102;48.542;-2.970;2023-04-24T07:14:46;16.00;;;2.85;;
77136;SDS011;66102;48.542;-2.970;2023-04-24T07:17:13;7.85;;;2.80;;
77136;SDS011;66102;48.542;-2.970;2023-04-24T07:19:39;11.20;;;3.35;;
77136;SDS011;66102;48.542;-2.970;2023-04-24T07:22:05;10.48;;;3.33;;
77136;SDS011;66102;48.542;-2.970;2023-04-24T07:24:32;10.80;;;2.90;;
77136;SDS011;66102;48.542;-2.970;2023-04-24T07:26:58;12.20;;;2.83;;
77136;SDS011;66102;48.542;-2.970;2023-04-24T07:29:26;8.05;;;2.47;;
77136;SDS011;66102;48.542;-2.970;2023-04-24T07:31:52;9.27;;;3.00;;
77136;SDS011;66102;48.542;-2.970;2023-04-24T07:34:19;9.98;;;2.70;;
77136;SDS011;66102;48.542;-2.970;2023-04-24T07:36:45;10.07;;;2.72;;
77136;SDS011;66102;48.542;-2.970;2023-04-24T07:39:12;9.80;;;3.08;;
77136;SDS011;66102;48.542;-2.970;2023-04-24T07:41:38;10.82;;;2.78;;
77136;SDS011;66102;48.542;-2.970;2023-04-24T07:44:04;8.40;;;2.92;;
77136;SDS011;66102;48.542;-2.970;2023-04-24T07:46:30;9.93;;;2.72;;
77136;SDS011;66102;48.542;-2.970;2023-04-24T07:48:57;9.98;;;2.60;;
77136;SDS011;66102;48.542;-2.970;2023-04-24T07:51:24;8.82;;;2.78;;
77136;SDS011;66102;48.542;-2.970;2023-04-24T07:53:52;10.10;;;3.08;;
77136;SDS011;66102;48.542;-2.970;2023-04-24T07:56:20;9.35;;;2.60;;
77136;SDS011;66102;48.542;-2.970;2023-04-24T07:58:46;9.90;;;2.67;;
77136;SDS011;66102;48.542;-2.970;2023-04-24T08:01:12;13.00;;;3.60;;
77136;SDS011;66102;48.542;-2.970;2023-04-24T08:03:38;8.65;;;2.60;;
77136;SDS011;66102;48.542;-2.970;2023-04-24T08:06:04;11.95;;;2.95;;
77136;SDS011;66102;48.542;-2.970;2023-04-24T08:08:30;12.02;;;2.70;;
77136;SDS011;66102;48.542;-2.970;2023-04-24T08:10:56;10.32;;;2.50;;
77136;SDS011;66102;48.542;-2.970;2023-04-24T08:13:22;10.10;;;2.60;;
77136;SDS011;66102;48.542;-2.970;2023-04-24T08:15:48;9.65;;;2.55;;
77136;SDS011;66102;48.542;-2.970;2023-04-24T08:18:14;7.43;;;2.58;;
77136;SDS011;66102;48.542;-2.970;2023-04-24T08:20:41;8.32;;;2.20;;
77136;SDS011;66102;48.542;-2.970;2023-04-24T08:23:07;8.05;;;2.40;;
77136;SDS011;66102;48.542;-2.970;2023-04-24T08:25:33;8.77;;;2.22;;
77136;SDS011;66102;48.542;-2.970;2023-04-24T08:28:00;7.88;;;2.33;;
77136;SDS011;66102;48.542;-2.970;2023-04-24T08:30:26;11.85;;;2.38;;
77136;SDS011;66102;48.542;-2.970;2023-04-24T08:32:52;11.07;;;2.78;;
77136;SDS011;66102;48.542;-2.970;2023-04-24T08:35:19;11.52;;;3.58;;
77136;SDS011;66102;48.542;-2.970;2023-04-24T08:37:45;8.93;;;2.60;;
77136;SDS011;66102;48.542;-2.970;2023-04-24T08:40:15;10.73;;;3.35;;
77136;SDS011;66102;48.542;-2.970;2023-04-24T08:42:41;8.07;;;2.35;;
77136;SDS011;66102;48.542;-2.970;2023-04-24T08:45:08;12.00;;;2.95;;
77136;SDS011;66102;48.542;-2.970;2023-04-24T08:47:35;10.30;;;2.90;;
77136;SDS011;66102;48.542;-2.970;2023-04-24T08:50:02;8.35;;;2.75;;
77136;SDS011;66102;48.542;-2.970;2023-04-24T08:52:31;10.40;;;2.60;;
77136;SDS011;66102;48.542;-2.970;2023-04-24T08:54:58;7.63;;;2.85;;
77136;SDS011;66102;48.542;-2.970;2023-04-24T08:57:26;9.98;;;2.95;;
77136;SDS011;66102;48.542;-2.970;2023-04-24T08:59:53;8.65;;;2.65;;
77136;SDS011;66102;48.542;-2.970;2023-04-24T09:02:19;8.95;;;2.47;;
77136;SDS011;66102;48.542;-2.970;2023-04-24T09:04:45;10.48;;;2.22;;
77136;SDS011;66102;48.542;-2.970;2023-04-24T09:07:12;10.20;;;2.70;;
77136;SDS011;66102;48.542;-2.970;2023-04-24T09:09:40;9.40;;;2.40;;
77136;SDS011;66102;48.542;-2.970;2023-04-24T09:12:07;12.68;;;2.90;;
77136;SDS011;66102;48.542;-2.970;2023-04-24T09:14:35;12.32;;;2.33;;
77136;SDS011;66102;48.542;-2.970;2023-04-24T09:17:04;6.57;;;2.40;;
77136;SDS011;66102;48.542;-2.970;2023-04-24T09:19:31;6.03;;;2.20;;
77136;SDS011;66102;48.542;-2.970;2023-04-24T09:21:57;9.07;;;2.65;;
77136;SDS011;66102;48.542;-2.970;2023-04-24T09:24:23;9.50;;;2.83;;
77136;SDS011;66102;48.542;-2.970;2023-04-24T09:26:49;8.30;;;2.03;;
77136;SDS011;66102;48.542;-2.970;2023-04-24T09:29:22;9.25;;;2.22;;
77136;SDS011;66102;48.542;-2.970;2023-04-24T09:31:48;7.07;;;1.90;;
77136;SDS011;66102;48.542;-2.970;2023-04-24T09:34:18;8.30;;;2.38;;
77136;SDS011;66102;48.542;-2.970;2023-04-24T09:36:46;9.50;;;2.80;;
77136;SDS011;66102;48.542;-2.970;2023-04-24T09:39:13;8.25;;;2.85;;
77136;SDS011;66102;48.542;-2.970;2023-04-24T09:46:42;8.25;;;2.33;;
77136;SDS011;66102;48.542;-2.970;2023-04-24T09:49:15;9.15;;;2.00;;
77136;SDS011;66102;48.542;-2.970;2023-04-24T09:51:41;8.75;;;2.10;;
77136;SDS011;66102;48.542;-2.970;2023-04-24T09:54:14;8.55;;;2.10;;
77136;SDS011;66102;48.542;-2.970;2023-04-24T09:56:44;7.45;;;1.80;;
77136;SDS011;66102;48.542;-2.970;2023-04-24T09:59:14;10.88;;;2.38;;
77136;SDS011;66102;48.542;-2.970;2023-04-24T10:01:44;7.43;;;2.53;;
77136;SDS011;66102;48.542;-2.970;2023-04-24T10:06:43;6.38;;;2.08;;
77136;SDS011;66102;48.542;-2.970;2023-04-24T10:09:09;8.60;;;2.13;;
77136;SDS011;66102;48.542;-2.970;2023-04-24T10:11:42;7.45;;;1.92;;
77136;SDS011;66102;48.542;-2.970;2023-04-24T10:14:14;8.32;;;2.25;;
77136;SDS011;66102;48.542;-2.970;2023-04-24T10:16:40;5.40;;;1.95;;
77136;SDS011;66102;48.542;-2.970;2023-04-24T10:19:07;8.48;;;1.95;;
77136;SDS011;66102;48.542;-2.970;2023-04-24T10:21:34;9.82;;;2.50;;
77136;SDS011;66102;48.542;-2.970;2023-04-24T10:24:00;6.18;;;2.05;;
77136;SDS011;66102;48.542;-2.970;2023-04-24T10:26:29;10.05;;;2.17;;
77136;SDS011;66102;48.542;-2.970;2023-04-24T10:28:56;7.97;;;2.35;;
77136;SDS011;66102;48.542;-2.970;2023-04-24T10:31:23;8.20;;;1.98;;
77136;SDS011;66102;48.542;-2.970;2023-04-24T10:33:49;7.18;;;2.53;;
77136;SDS011;66102;48.542;-2.970;2023-04-24T10:36:15;6.40;;;2.22;;
77136;SDS011;66102;48.542;-2.970;2023-04-24T10:38:42;8.57;;;2.30;;
77136;SDS011;66102;48.542;-2.970;2023-04-24T10:41:09;8.00;;;2.25;;
77136;SDS011;66102;48.542;-2.970;2023-04-24T10:43:41;6.95;;;2.10;;
77136;SDS011;66102;48.542;-2.970;2023-04-24T10:46:07;11.88;;;2.65;;
77136;SDS011;66102;48.542;-2.970;2023-04-24T10:48:35;7.25;;;2.20;;
77136;SDS011;66102;48.542;-2.970;2023-04-24T10:51:01;9.90;;;2.35;;
77136;SDS011;66102;48.542;-2.970;2023-04-24T10:53:28;8.05;;;1.90;;
77136;SDS011;66102;48.542;-2.970;2023-04-24T10:55:58;10.32;;;2.25;;
77136;SDS011;66102;48.542;-2.970;2023-04-24T10:58:35;8.80;;;2.40;;
77136;SDS011;66102;48.542;-2.970;2023-04-24T11:01:02;8.43;;;2.60;;
77136;SDS011;66102;48.542;-2.970;2023-04-24T11:03:29;5.97;;;2.42;;
77136;SDS011;66102;48.542;-2.970;2023-04-24T11:05:59;10.07;;;2.80;;
77136;SDS011;66102;48.542;-2.970;2023-04-24T11:08:29;9.85;;;2.60;;
77136;SDS011;66102;48.542;-2.970;2023-04-24T11:13:23;9.02;;;2.22;;
77136;SDS011;66102;48.542;-2.970;2023-04-24T11:16:33;8.07;;;2.53;;
77136;SDS011;66102;48.542;-2.970;2023-04-24T11:18:40;8.07;;;1.88;;
77136;SDS011;66102;48.542;-2.970;2023-04-24T11:21:15;8.40;;;2.33;;
77136;SDS011;66102;48.542;-2.970;2023-04-24T11:23:42;7.57;;;2.03;;
77136;SDS011;66102;48.542;-2.970;2023-04-24T11:26:11;8.63;;;2.75;;
77136;SDS011;66102;48.542;-2.970;2023-04-24T11:28:48;9.07;;;2.22;;
77136;SDS011;66102;48.542;-2.970;2023-04-24T11:34:05;8.05;;;2.03;;
77136;SDS011;66102;48.542;-2.970;2023-04-24T11:36:31;7.00;;;1.83;;
77136;SDS011;66102;48.542;-2.970;2023-04-24T11:38:57;9.32;;;2.10;;
77136;SDS011;66102;48.542;-2.970;2023-04-24T11:41:23;7.30;;;1.90;;
77136;SDS011;66102;48.542;-2.970;2023-04-24T11:43:50;7.40;;;2.00;;
77136;SDS011;66102;48.542;-2.970;2023-04-24T11:46:17;7.28;;;2.33;;
77136;SDS011;66102;48.542;-2.970;2023-04-24T11:48:46;7.03;;;1.90;;
77136;SDS011;66102;48.542;-2.970;2023-04-24T11:51:13;10.02;;;2.00;;
77136;SDS011;66102;48.542;-2.970;2023-04-24T11:53:39;7.85;;;1.80;;
77136;SDS011;66102;48.542;-2.970;2023-04-24T11:56:05;8.23;;;1.80;;
77136;SDS011;66102;48.542;-2.970;2023-04-24T11:58:38;8.65;;;2.05;;
77136;SDS011;66102;48.542;-2.970;2023-04-24T12:01:04;6.10;;;1.83;;
77136;SDS011;66102;48.542;-2.970;2023-04-24T12:03:31;7.45;;;2.00;;
77136;SDS011;66102;48.542;-2.970;2023-04-24T12:06:06;9.52;;;2.22;;
77136;SDS011;66102;48.542;-2.970;2023-04-24T12:08:33;5.88;;;1.75;;
77136;SDS011;66102;48.542;-2.970;2023-04-24T12:11:02;7.35;;;1.95;;
77136;SDS011;66102;48.542;-2.970;2023-04-24T12:13:29;9.57;;;2.10;;
77136;SDS011;66102;48.542;-2.970;2023-04-24T12:15:56;4.95;;;1.92;;
77136;SDS011;66102;48.542;-2.970;2023-04-24T12:18:23;6.35;;;1.90;;
77136;SDS011;66102;48.542;-2.970;2023-04-24T12:20:49;6.45;;;2.20;;
77136;SDS011;66102;48.542;-2.970;2023-04-24T12:23:15;7.50;;;2.45;;
77136;SDS011;66102;48.542;-2.970;2023-04-24T12:25:42;5.75;;;1.90;;
77136;SDS011;66102;48.542;-2.970;2023-04-24T12:28:12;8.38;;;1.95;;
77136;SDS011;66102;48.542;-2.970;2023-04-24T12:30:42;8.93;;;1.85;;
77136;SDS011;66102;48.542;-2.970;2023-04-24T12:35:35;5.38;;;1.77;;
77136;SDS011;66102;48.542;-2.970;2023-04-24T12:38:05;7.43;;;1.95;;
77136;SDS011;66102;48.542;-2.970;2023-04-24T12:40:31;9.43;;;1.92;;
77136;SDS011;66102;48.542;-2.970;2023-04-24T12:42:57;7.13;;;2.15;;
77136;SDS011;66102;48.542;-2.970;2023-04-24T12:45:23;8.80;;;2.03;;
77136;SDS011;66102;48.542;-2.970;2023-04-24T12:47:50;11.82;;;2.90;;
77136;SDS011;66102;48.542;-2.970;2023-04-24T12:50:16;11.48;;;2.80;;
77136;SDS011;66102;48.542;-2.970;2023-04-24T12:52:42;12.98;;;2.78;;
77136;SDS011;66102;48.542;-2.970;2023-04-24T12:55:09;12.40;;;2.97;;
77136;SDS011;66102;48.542;-2.970;2023-04-24T12:57:37;10.05;;;2.50;;
77136;SDS011;66102;48.542;-2.970;2023-04-24T13:00:05;9.98;;;2.72;;
77136;SDS011;66102;48.542;-2.970;2023-04-24T13:02:31;10.93;;;2.72;;
77136;SDS011;66102;48.542;-2.970;2023-04-24T13:04:58;10.88;;;2.60;;
77136;SDS011;66102;48.542;-2.970;2023-04-24T13:07:24;11.23;;;3.22;;
77136;SDS011;66102;48.542;-2.970;2023-04-24T13:09:51;9.40;;;3.22;;
77136;SDS011;66102;48.542;-2.970;2023-04-24T13:12:17;10.35;;;2.85;;
77136;SDS011;66102;48.542;-2.970;2023-04-24T13:14:43;13.00;;;2.78;;
77136;SDS011;66102;48.542;-2.970;2023-04-24T13:17:13;9.65;;;2.85;;
77136;SDS011;66102;48.542;-2.970;2023-04-24T13:19:40;11.40;;;3.33;;
77136;SDS011;66102;48.542;-2.970;2023-04-24T13:22:08;10.27;;;3.10;;
77136;SDS011;66102;48.542;-2.970;2023-04-24T13:24:34;11.30;;;3.67;;
77136;SDS011;66102;48.542;-2.970;2023-04-24T13:27:00;11.98;;;3.13;;
77136;SDS011;66102;48.542;-2.970;2023-04-24T13:29:27;10.48;;;3.00;;
77136;SDS011;66102;48.542;-2.970;2023-04-24T13:31:53;13.57;;;3.47;;
77136;SDS011;66102;48.542;-2.970;2023-04-24T13:34:20;11.40;;;3.60;;
77136;SDS011;66102;48.542;-2.970;2023-04-24T13:36:46;12.70;;;3.40;;
77136;SDS011;66102;48.542;-2.970;2023-04-24T13:39:12;12.02;;;3.25;;
77136;SDS011;66102;48.542;-2.970;2023-04-24T13:41:38;12.13;;;3.33;;
77136;SDS011;66102;48.542;-2.970;2023-04-24T13:44:05;14.55;;;3.92;;
77136;SDS011;66102;48.542;-2.970;2023-04-24T13:46:31;11.48;;;3.92;;
77136;SDS011;66102;48.542;-2.970;2023-04-24T13:48:57;13.50;;;3.55;;
77136;SDS011;66102;48.542;-2.970;2023-04-24T13:51:25;9.20;;;2.78;;
77136;SDS011;66102;48.542;-2.970;2023-04-24T13:53:54;14.85;;;3.53;;
77136;SDS011;66102;48.542;-2.970;2023-04-24T13:56:20;12.27;;;3.33;;
77136;SDS011;66102;48.542;-2.970;2023-04-24T13:58:47;10.88;;;3.05;;
77136;SDS011;66102;48.542;-2.970;2023-04-24T14:01:13;13.55;;;3.00;;
77136;SDS011;66102;48.542;-2.970;2023-04-24T14:03:40;8.48;;;3.38;;
77136;SDS011;66102;48.542;-2.970;2023-04-24T14:06:08;13.18;;;4.25;;
77136;SDS011;66102;48.542;-2.970;2023-04-24T14:08:34;11.77;;;3.30;;
77136;SDS011;66102;48.542;-2.970;2023-04-24T14:11:00;10.57;;;3.13;;
77136;SDS011;66102;48.542;-2.970;2023-04-24T14:13:26;14.20;;;3.28;;
77136;SDS011;66102;48.542;-2.970;2023-04-24T14:15:52;7.53;;;3.30;;
77136;SDS011;66102;48.542;-2.970;2023-04-24T14:18:18;7.30;;;2.65;;
77136;SDS011;66102;48.542;-2.970;2023-04-24T14:20:45;9.45;;;3.45;;
77136;SDS011;66102;48.542;-2.970;2023-04-24T14:23:11;7.78;;;3.10;;
77136;SDS011;66102;48.542;-2.970;2023-04-24T14:25:37;9.40;;;3.90;;
77136;SDS011;66102;48.542;-2.970;2023-04-24T14:28:03;13.48;;;4.40;;
77136;SDS011;66102;48.542;-2.970;2023-04-24T14:30:29;7.82;;;3.03;;
77136;SDS011;66102;48.542;-2.970;2023-04-24T14:32:55;9.75;;;2.95;;
77136;SDS011;66102;48.542;-2.970;2023-04-24T14:35:21;12.40;;;3.05;;
77136;SDS011;66102;48.542;-2.970;2023-04-24T14:37:47;11.65;;;3.80;;
77136;SDS011;66102;48.542;-2.970;2023-04-24T14:40:14;10.38;;;3.60;;
77136;SDS011;66102;48.542;-2.970;2023-04-24T14:42:40;12.20;;;3.95;;